Time;durP1;ratioP1;P1;durP2;ratioP2;P2;SDS_P1;SDS_P2;PMS_P1;PMS_P2;Temp;Humidity;BMP_temperature;BMP_pressure;BME280_temperature;BME280_humidity;BME280_pressure;Samples;Min_cycle;Max_cycle;Signal;HPM_P1;HPM_P2
2022/05/04 00:01:42;;;;;;;9.38;2.92;;;9.50;99.90;;;;;;5111219;28;20046;-65
2022/05/04 00:04:07;;;;;;;16.75;4.05;;;9.50;99.90;;;;;;5111608;28;20032;-65
2022/05/04 00:06:33;;;;;;;10.15;3.00;;;9.50;99.90;;;;;;5110715;28;20070;-65
2022/05/04 00:08:58;;;;;;;7.55;3.00;;;9.50;99.90;;;;;;5110428;28;20039;-64
2022/05/04 00:11:24;;;;;;;12.25;3.63;;;9.50;99.90;;;;;;5111411;28;20665;-65
2022/05/04 00:13:50;;;;;;;7.40;2.85;;;9.40;99.90;;;;;;5093093;28;20507;-65
2022/05/04 00:16:15;;;;;;;11.00;3.85;;;9.40;99.90;;;;;;5111037;28;20077;-65
2022/05/04 00:18:41;;;;;;;10.27;3.40;;;9.50;99.90;;;;;;5110847;28;20102;-66
2022/05/04 00:21:07;;;;;;;16.40;4.05;;;9.40;99.90;;;;;;5092097;28;20092;-65
2022/05/04 00:23:33;;;;;;;18.55;3.75;;;9.50;99.90;;;;;;5111214;28;20042;-65
2022/05/04 00:25:59;;;;;;;14.55;3.72;;;9.40;99.90;;;;;;5111296;28;20039;-65
2022/05/04 00:28:24;;;;;;;11.82;3.10;;;9.40;99.90;;;;;;5110598;28;20111;-67
2022/05/04 00:30:50;;;;;;;12.55;3.05;;;9.40;99.90;;;;;;5111283;28;20080;-64
2022/05/04 00:33:15;;;;;;;13.10;3.42;;;9.40;99.90;;;;;;5093258;28;20077;-65
2022/05/04 00:35:41;;;;;;;7.70;3.13;;;9.40;99.90;;;;;;5111106;28;20184;-65
2022/05/04 00:38:07;;;;;;;12.75;3.92;;;9.50;99.90;;;;;;5111181;28;20050;-65
2022/05/04 00:40:33;;;;;;;10.15;3.28;;;9.40;99.90;;;;;;5110723;28;20089;-65
2022/05/04 00:42:58;;;;;;;11.60;3.55;;;9.40;99.90;;;;;;5109982;28;20081;-65
2022/05/04 00:45:24;;;;;;;10.38;3.40;;;9.40;99.90;;;;;;5110991;28;20462;-65
2022/05/04 00:47:50;;;;;;;21.13;3.67;;;9.40;99.90;;;;;;5110078;28;20112;-65
2022/05/04 00:50:15;;;;;;;8.32;3.35;;;9.30;99.90;;;;;;5109140;28;20035;-65
2022/05/04 00:52:43;;;;;;;11.68;2.92;;;9.30;99.90;;;;;;5109141;28;20392;-65
2022/05/04 00:55:10;;;;;;;14.23;3.83;;;9.30;99.90;;;;;;5109073;28;20046;-65
2022/05/04 01:00:22;;;;;;;12.57;3.13;;;9.30;99.90;;;;;;5110149;28;20047;-64
2022/05/04 01:02:48;;;;;;;10.95;3.17;;;9.30;99.90;;;;;;5110410;28;20044;-64
2022/05/04 01:05:14;;;;;;;15.32;3.05;;;9.30;99.90;;;;;;5110817;28;20035;-65
2022/05/04 01:07:42;;;;;;;11.85;2.80;;;9.30;99.90;;;;;;5110775;28;20063;-65
2022/05/04 01:10:10;;;;;;;7.40;3.22;;;9.30;99.90;;;;;;5110760;28;20045;-64
2022/05/04 01:12:36;;;;;;;6.82;2.90;;;9.30;99.90;;;;;;5110887;28;20039;-65
2022/05/04 01:15:03;;;;;;;8.07;2.80;;;9.30;99.90;;;;;;5110936;28;20461;-65
2022/05/04 01:17:28;;;;;;;16.80;3.25;;;9.20;99.90;;;;;;5110487;28;20096;-66
2022/05/04 01:19:58;;;;;;;8.93;3.30;;;9.30;99.90;;;;;;5111323;28;20040;-65
2022/05/04 01:22:24;;;;;;;10.35;3.13;;;9.20;99.90;;;;;;5113664;28;20075;-64
2022/05/04 01:24:50;;;;;;;9.52;3.88;;;9.20;99.90;;;;;;5114709;28;20074;-65
2022/05/04 01:27:16;;;;;;;12.90;4.07;;;9.20;99.90;;;;;;5113384;28;20086;-65
2022/05/04 01:29:41;;;;;;;7.13;2.72;;;9.20;99.90;;;;;;5114122;28;20047;-65
2022/05/04 01:32:07;;;;;;;5.68;2.92;;;9.30;99.90;;;;;;5113529;28;20078;-66
2022/05/04 01:34:33;;;;;;;9.05;3.33;;;9.30;99.90;;;;;;5114070;28;20456;-65
2022/05/04 01:36:59;;;;;;;13.30;2.92;;;9.30;99.90;;;;;;5113760;28;20043;-65
2022/05/04 01:39:24;;;;;;;7.70;3.10;;;9.20;99.90;;;;;;5113187;28;20032;-65
2022/05/04 01:42:02;;;;;;;15.52;3.42;;;9.30;99.90;;;;;;5113221;28;20126;-65
2022/05/04 01:44:28;;;;;;;14.68;3.58;;;9.30;99.90;;;;;;5114105;28;20046;-65
2022/05/04 01:46:53;;;;;;;15.20;3.45;;;9.30;99.90;;;;;;5113858;28;20492;-66
2022/05/04 01:49:19;;;;;;;13.50;3.65;;;9.20;99.90;;;;;;5113612;28;20035;-64
2022/05/04 01:51:44;;;;;;;11.98;3.63;;;9.20;99.90;;;;;;5113924;28;20042;-65
2022/05/04 01:54:10;;;;;;;10.43;3.33;;;9.20;99.90;;;;;;5114121;28;20411;-65
2022/05/04 01:56:35;;;;;;;11.40;2.90;;;9.10;99.90;;;;;;5113565;28;20483;-65
2022/05/04 01:59:01;;;;;;;14.05;3.53;;;9.10;99.90;;;;;;5094904;28;20435;-65
2022/05/04 02:01:27;;;;;;;12.38;3.13;;;9.10;99.90;;;;;;5113738;28;20043;-65
2022/05/04 02:03:53;;;;;;;9.00;3.40;;;9.10;99.90;;;;;;5113750;28;20381;-64
2022/05/04 02:06:19;;;;;;;15.88;3.47;;;9.10;99.90;;;;;;5113422;28;20032;-65
2022/05/04 02:08:45;;;;;;;12.63;3.40;;;9.10;99.90;;;;;;5113590;28;20039;-65
2022/05/04 02:11:11;;;;;;;8.57;2.55;;;9.10;99.90;;;;;;5113763;28;20043;-65
2022/05/04 02:13:36;;;;;;;8.52;3.10;;;9.10;99.90;;;;;;5113679;28;20148;-66
2022/05/04 02:16:02;;;;;;;12.10;3.40;;;9.10;99.90;;;;;;5113167;28;20044;-66
2022/05/04 02:18:27;;;;;;;14.70;3.70;;;9.10;99.90;;;;;;5112056;28;20598;-65
2022/05/04 02:20:53;;;;;;;7.38;3.10;;;9.10;99.90;;;;;;5113256;28;20491;-65
2022/05/04 02:23:19;;;;;;;14.00;3.47;;;9.00;99.90;;;;;;5113444;28;20373;-65
2022/05/04 02:25:45;;;;;;;9.07;3.00;;;9.10;99.90;;;;;;5113115;28;20403;-66
2022/05/04 02:28:11;;;;;;;14.82;3.50;;;9.00;99.90;;;;;;5112087;28;20526;-65
2022/05/04 02:30:36;;;;;;;8.88;3.40;;;9.00;99.90;;;;;;5112879;28;20078;-66
2022/05/04 02:33:02;;;;;;;13.18;3.80;;;8.90;99.90;;;;;;5112547;28;20118;-65
2022/05/04 02:38:12;;;;;;;11.45;3.35;;;8.90;99.90;;;;;;5112927;28;20043;-65
2022/05/04 02:40:37;;;;;;;5.93;2.60;;;9.00;99.90;;;;;;5112726;28;20488;-65
2022/05/04 02:43:06;;;;;;;11.48;4.18;;;8.90;99.90;;;;;;5112799;28;20032;-65
2022/05/04 02:45:31;;;;;;;6.43;2.92;;;9.00;99.90;;;;;;5113042;28;20091;-65
2022/05/04 02:47:57;;;;;;;8.25;3.30;;;9.00;99.90;;;;;;5112435;28;20071;-66
2022/05/04 02:50:23;;;;;;;8.38;2.97;;;9.10;99.90;;;;;;5112639;28;20063;-65
2022/05/04 02:52:49;;;;;;;11.00;4.35;;;9.10;99.90;;;;;;5112867;28;20499;-65
2022/05/04 02:55:14;;;;;;;7.70;2.85;;;9.00;99.90;;;;;;5094319;28;20043;-64
2022/05/04 02:57:40;;;;;;;11.07;3.40;;;9.10;99.90;;;;;;5111799;28;20051;-65
2022/05/04 03:00:06;;;;;;;9.88;3.45;;;9.00;99.90;;;;;;5111679;28;20039;-65
2022/05/04 03:02:32;;;;;;;9.02;3.10;;;9.00;99.90;;;;;;5112036;28;20096;-65
2022/05/04 03:05:06;;;;;;;13.60;3.72;;;9.00;99.90;;;;;;5112418;28;20118;-65
2022/05/04 03:07:31;;;;;;;14.32;3.20;;;9.00;99.90;;;;;;5112470;28;20059;-66
2022/05/04 03:09:58;;;;;;;7.60;3.55;;;9.10;99.90;;;;;;5112029;28;20039;-64
2022/05/04 03:12:24;;;;;;;10.65;4.22;;;9.00;99.90;;;;;;5112539;28;20036;-66
2022/05/04 03:14:50;;;;;;;9.50;3.35;;;9.00;99.90;;;;;;5094252;28;20102;-65
2022/05/04 03:17:17;;;;;;;16.52;3.35;;;9.00;99.90;;;;;;5111237;28;20127;-65
2022/05/04 03:19:42;;;;;;;11.18;3.33;;;9.00;99.90;;;;;;5112116;28;20403;-65
2022/05/04 03:22:08;;;;;;;11.32;3.78;;;9.00;99.90;;;;;;5112101;28;20040;-65
2022/05/04 03:24:33;;;;;;;14.95;3.92;;;9.00;99.90;;;;;;5112054;28;20527;-66
2022/05/04 03:26:59;;;;;;;24.02;4.22;;;9.00;99.90;;;;;;5111966;28;20452;-64
2022/05/04 03:29:25;;;;;;;13.00;4.05;;;9.00;99.90;;;;;;5112024;28;20399;-65
2022/05/04 03:31:50;;;;;;;8.85;3.92;;;9.00;99.90;;;;;;5112232;28;20055;-65
2022/05/04 03:34:16;;;;;;;13.35;3.50;;;8.90;99.90;;;;;;5112263;28;20035;-65
2022/05/04 03:36:42;;;;;;;12.32;3.38;;;8.90;99.90;;;;;;5112060;28;20489;-65
2022/05/04 03:39:08;;;;;;;12.73;4.28;;;8.90;99.90;;;;;;5111718;28;20044;-65
2022/05/04 03:41:34;;;;;;;13.95;3.58;;;8.90;99.90;;;;;;5112200;28;20114;-65
2022/05/04 03:44:00;;;;;;;11.48;4.25;;;8.90;99.90;;;;;;5110774;28;20515;-65
2022/05/04 03:46:27;;;;;;;18.02;4.10;;;8.90;99.90;;;;;;5111796;28;20040;-65
2022/05/04 03:49:01;;;;;;;7.35;3.63;;;8.90;99.90;;;;;;5110950;28;20461;-65
2022/05/04 03:51:28;;;;;;;14.15;4.25;;;8.90;99.90;;;;;;5110859;28;20043;-65
2022/05/04 03:53:54;;;;;;;16.33;3.50;;;8.90;99.90;;;;;;5109619;28;20663;-65
2022/05/04 03:56:20;;;;;;;14.82;3.88;;;8.90;99.90;;;;;;5110141;28;20035;-68
2022/05/04 03:58:46;;;;;;;8.95;3.22;;;8.80;99.90;;;;;;5108273;28;20079;-65
2022/05/04 04:01:13;;;;;;;13.80;3.40;;;8.80;99.90;;;;;;5108006;28;20078;-65
2022/05/04 04:03:39;;;;;;;14.18;4.07;;;8.90;99.90;;;;;;5109157;28;20031;-66
2022/05/04 04:06:05;;;;;;;10.55;3.72;;;8.90;99.90;;;;;;5110198;28;20169;-65
2022/05/04 04:08:30;;;;;;;9.02;4.28;;;8.90;99.90;;;;;;5111343;28;20111;-65
2022/05/04 04:10:57;;;;;;;9.68;3.83;;;8.90;99.90;;;;;;5109931;28;20043;-66
2022/05/04 04:13:23;;;;;;;14.35;4.03;;;8.80;99.90;;;;;;5109971;28;20046;-65
2022/05/04 04:15:51;;;;;;;14.60;4.07;;;8.90;99.90;;;;;;5110020;28;20036;-65
2022/05/04 04:18:21;;;;;;;13.50;3.88;;;8.90;99.90;;;;;;5110301;28;20054;-66
2022/05/04 04:23:31;;;;;;;14.43;4.50;;;8.90;99.90;;;;;;5111454;28;20052;-65
2022/05/04 04:25:57;;;;;;;18.50;4.13;;;8.80;99.90;;;;;;5111045;28;20035;-65
2022/05/04 04:28:23;;;;;;;10.23;3.50;;;8.90;99.90;;;;;;5111120;28;20031;-65
2022/05/04 04:30:48;;;;;;;11.45;3.67;;;8.80;99.90;;;;;;5110883;28;20031;-64
2022/05/04 04:33:14;;;;;;;9.68;3.67;;;8.80;99.90;;;;;;5111151;28;20114;-65
2022/05/04 04:35:40;;;;;;;12.35;3.88;;;8.80;99.90;;;;;;5110956;28;20047;-66
2022/05/04 04:38:07;;;;;;;12.63;4.30;;;8.80;99.90;;;;;;5111147;28;20124;-65
2022/05/04 04:40:33;;;;;;;13.05;3.88;;;8.80;99.90;;;;;;5110921;28;20042;-65
2022/05/04 04:43:00;;;;;;;11.40;4.05;;;8.80;99.90;;;;;;5110906;28;20040;-65
2022/05/04 04:45:27;;;;;;;13.73;3.97;;;8.80;99.90;;;;;;5111050;28;20767;-66
2022/05/04 04:47:52;;;;;;;13.38;4.15;;;8.80;99.90;;;;;;5110843;28;20032;-65
2022/05/04 04:50:18;;;;;;;10.27;3.83;;;8.80;99.90;;;;;;5110950;28;20100;-65
2022/05/04 04:52:43;;;;;;;12.73;4.47;;;8.90;99.90;;;;;;5111456;28;20044;-65
2022/05/04 04:55:09;;;;;;;17.65;3.78;;;8.90;99.90;;;;;;5112984;28;20027;-65
2022/05/04 04:57:34;;;;;;;12.52;3.85;;;9.00;99.90;;;;;;5114266;28;20479;-65
2022/05/04 05:00:00;;;;;;;11.60;3.78;;;8.90;99.90;;;;;;5114583;28;20039;-66
2022/05/04 05:02:26;;;;;;;13.60;4.20;;;8.90;99.90;;;;;;5114987;28;20043;-65
2022/05/04 05:04:52;;;;;;;12.13;3.72;;;8.90;99.90;;;;;;5115037;28;20448;-65
2022/05/04 05:07:18;;;;;;;12.05;4.10;;;9.00;99.90;;;;;;5114462;28;20027;-65
2022/05/04 05:09:43;;;;;;;13.88;4.00;;;9.00;99.90;;;;;;5096125;28;20051;-65
2022/05/04 05:12:09;;;;;;;19.33;4.30;;;9.00;99.90;;;;;;5114750;28;20586;-65
2022/05/04 05:17:19;;;;;;;11.38;3.53;;;8.90;99.90;;;;;;5114617;28;20039;-64
2022/05/04 05:19:44;;;;;;;16.83;3.58;;;9.00;99.90;;;;;;5114104;28;20035;-65
2022/05/04 05:22:10;;;;;;;11.70;5.22;;;9.00;99.90;;;;;;5113688;28;20035;-65
2022/05/04 05:24:35;;;;;;;9.32;3.22;;;9.00;99.90;;;;;;5114083;28;20046;-65
2022/05/04 05:27:01;;;;;;;11.63;3.75;;;9.00;99.90;;;;;;5114127;28;20044;-66
2022/05/04 05:29:27;;;;;;;14.23;3.63;;;9.10;99.90;;;;;;5113952;28;20403;-65
2022/05/04 05:31:52;;;;;;;10.55;4.00;;;9.10;99.90;;;;;;5113655;28;20062;-65
2022/05/04 05:34:18;;;;;;;10.73;3.35;;;9.10;99.90;;;;;;5114480;28;20518;-65
2022/05/04 05:36:44;;;;;;;13.27;3.95;;;9.10;99.90;;;;;;5114000;28;20047;-66
2022/05/04 05:39:10;;;;;;;10.48;3.30;;;9.20;99.90;;;;;;5113987;28;20453;-65
2022/05/04 05:41:35;;;;;;;11.02;3.75;;;9.20;99.90;;;;;;5114025;28;20051;-66
2022/05/04 05:44:01;;;;;;;17.45;4.65;;;9.20;99.90;;;;;;5114033;28;20054;-65
2022/05/04 05:46:28;;;;;;;11.15;2.67;;;9.20;99.90;;;;;;5113749;28;20563;-65
2022/05/04 05:48:53;;;;;;;9.50;3.15;;;9.30;99.90;;;;;;5113121;28;20063;-70
2022/05/04 05:51:19;;;;;;;5.75;2.47;;;9.30;99.90;;;;;;5113068;28;20467;-68
2022/05/04 05:53:44;;;;;;;14.00;2.88;;;9.30;99.90;;;;;;5113841;28;20571;-68
2022/05/04 05:56:10;;;;;;;8.95;2.40;;;9.40;99.90;;;;;;5113795;28;20046;-69
2022/05/04 05:58:36;;;;;;;9.73;3.35;;;9.40;99.90;;;;;;5113434;28;20038;-69
2022/05/04 06:01:01;;;;;;;16.92;3.15;;;9.40;99.90;;;;;;5113647;28;20108;-68
2022/05/04 06:03:28;;;;;;;10.30;2.95;;;9.40;99.90;;;;;;5113728;28;20032;-68
2022/05/04 06:05:54;;;;;;;7.82;2.65;;;9.40;99.90;;;;;;5113040;28;20032;-69
2022/05/04 06:08:19;;;;;;;10.25;2.80;;;9.40;99.90;;;;;;5113439;28;20058;-68
2022/05/04 06:10:45;;;;;;;15.05;3.20;;;9.50;99.90;;;;;;5113678;28;20039;-68
2022/05/04 06:13:11;;;;;;;11.65;3.10;;;9.50;99.90;;;;;;5113468;28;20051;-68
2022/05/04 06:15:36;;;;;;;10.63;2.88;;;9.50;99.90;;;;;;5113410;28;20039;-69
2022/05/04 06:18:02;;;;;;;8.73;3.03;;;9.50;99.90;;;;;;5113081;28;20035;-68
2022/05/04 06:20:29;;;;;;;8.30;2.80;;;9.50;99.90;;;;;;5112891;28;20085;-68
2022/05/04 06:22:55;;;;;;;11.43;3.47;;;9.60;99.90;;;;;;5113454;28;20075;-69
2022/05/04 06:25:21;;;;;;;10.98;2.97;;;9.70;99.90;;;;;;5113269;28;20058;-69
2022/05/04 06:27:46;;;;;;;12.35;3.75;;;9.70;99.90;;;;;;5094712;28;20084;-68
2022/05/04 06:35:40;;;;;;;10.75;3.60;;;9.80;99.90;;;;;;5113010;28;20631;-67
2022/05/04 06:38:06;;;;;;;6.63;3.65;;;9.90;99.90;;;;;;5112186;28;20118;-68
2022/05/04 06:40:32;;;;;;;10.50;4.18;;;9.80;99.90;;;;;;5112582;28;20054;-68
2022/05/04 06:42:58;;;;;;;11.85;2.60;;;9.90;99.90;;;;;;5113084;28;20454;-69
2022/05/04 06:45:23;;;;;;;9.07;2.63;;;9.90;99.90;;;;;;5112966;28;20039;-69
2022/05/04 06:47:49;;;;;;;10.77;2.92;;;10.00;99.90;;;;;;5112911;28;20036;-69
2022/05/04 06:50:15;;;;;;;11.88;2.88;;;9.90;99.90;;;;;;5112676;28;20149;-68
2022/05/04 06:52:41;;;;;;;11.05;2.65;;;9.90;99.90;;;;;;5112682;28;20081;-68
2022/05/04 06:55:07;;;;;;;15.90;3.13;;;9.90;99.90;;;;;;5112716;28;20046;-68
2022/05/04 06:57:33;;;;;;;9.85;3.13;;;10.00;99.90;;;;;;5111702;28;20040;-68
2022/05/04 06:59:59;;;;;;;6.63;2.92;;;10.10;99.90;;;;;;5093834;28;20055;-68
2022/05/04 07:02:25;;;;;;;10.90;2.88;;;10.20;99.90;;;;;;5112524;28;20040;-68
2022/05/04 07:04:51;;;;;;;9.48;2.90;;;10.30;99.90;;;;;;5112628;28;20043;-68
2022/05/04 07:07:16;;;;;;;12.27;3.85;;;10.30;99.90;;;;;;5112261;28;20486;-69
2022/05/04 07:09:42;;;;;;;10.85;2.90;;;10.40;99.90;;;;;;5112431;28;20115;-68
2022/05/04 07:12:08;;;;;;;15.23;2.90;;;10.50;99.90;;;;;;5112464;28;20459;-69
2022/05/04 07:14:34;;;;;;;6.60;2.78;;;10.50;99.90;;;;;;5112558;28;20510;-68
2022/05/04 07:16:59;;;;;;;7.82;2.92;;;10.50;99.90;;;;;;5094127;28;20036;-68
2022/05/04 07:19:25;;;;;;;11.68;3.05;;;10.60;99.90;;;;;;5111996;28;20036;-65
2022/05/04 07:21:51;;;;;;;12.43;3.03;;;10.60;99.90;;;;;;5112169;28;20139;-65
2022/05/04 07:24:17;;;;;;;19.17;3.92;;;10.70;99.90;;;;;;5111997;28;20043;-65
2022/05/04 07:26:42;;;;;;;9.60;3.65;;;10.90;99.90;;;;;;5111181;28;20046;-66
2022/05/04 07:29:08;;;;;;;11.70;3.03;;;11.10;99.90;;;;;;5111393;28;20487;-67
2022/05/04 07:31:35;;;;;;;11.25;3.55;;;11.10;99.90;;;;;;5111041;28;20050;-68
2022/05/04 07:34:01;;;;;;;13.63;3.13;;;11.10;99.90;;;;;;5111906;28;20051;-69
2022/05/04 07:36:27;;;;;;;8.82;3.40;;;11.20;99.90;;;;;;5111536;28;20043;-69
2022/05/04 07:38:52;;;;;;;10.52;3.47;;;11.20;99.90;;;;;;5111408;28;20039;-69
2022/05/04 07:44:02;;;;;;;18.58;3.75;;;11.00;99.90;;;;;;5111921;28;20411;-70
2022/05/04 07:46:28;;;;;;;15.43;4.32;;;11.10;99.90;;;;;;5111483;28;20047;-69
2022/05/04 07:48:55;;;;;;;12.43;4.05;;;11.30;99.90;;;;;;5111459;28;20045;-69
2022/05/04 07:51:21;;;;;;;10.27;3.63;;;11.40;99.90;;;;;;5093275;28;20082;-69
2022/05/04 07:53:47;;;;;;;11.45;3.38;;;11.40;99.90;;;;;;5111910;28;20491;-70
2022/05/04 07:56:12;;;;;;;10.30;3.83;;;11.50;99.90;;;;;;5111597;28;20032;-69
2022/05/04 07:58:38;;;;;;;10.50;3.17;;;11.50;99.90;;;;;;5111272;28;20445;-69
2022/05/04 08:06:32;;;;;;;8.43;3.10;;;11.50;99.90;;;;;;5111457;28;20047;-69
2022/05/04 08:08:58;;;;;;;8.93;3.92;;;11.50;99.90;;;;;;5092914;28;20040;-69
2022/05/04 08:11:23;;;;;;;7.57;2.90;;;11.50;99.90;;;;;;5111429;28;20040;-69
2022/05/04 08:13:49;;;;;;;14.45;3.25;;;11.60;99.90;;;;;;5111597;28;20047;-69
2022/05/04 08:16:14;;;;;;;10.75;3.10;;;11.60;99.90;;;;;;5093001;28;20032;-69
2022/05/04 08:18:43;;;;;;;14.20;4.13;;;11.60;99.20;;;;;;5110286;28;20093;-68
2022/05/04 08:21:08;;;;;;;14.15;3.38;;;11.50;99.90;;;;;;5091895;28;20119;-68
2022/05/04 08:23:34;;;;;;;10.20;3.33;;;11.50;99.90;;;;;;5092919;28;20472;-68
2022/05/04 08:26:01;;;;;;;9.63;4.00;;;11.60;99.90;;;;;;5111246;28;20043;-69
2022/05/04 08:28:27;;;;;;;9.27;3.47;;;11.50;99.90;;;;;;5110635;28;20495;-69
2022/05/04 08:30:52;;;;;;;12.93;3.42;;;11.50;99.90;;;;;;5098937;28;20054;-69
2022/05/04 08:33:18;;;;;;;11.85;3.50;;;11.70;99.90;;;;;;5118144;28;20063;-69
2022/05/04 08:35:44;;;;;;;8.63;3.38;;;11.60;99.90;;;;;;5118048;28;20031;-69
2022/05/04 08:38:10;;;;;;;7.95;3.10;;;11.60;98.30;;;;;;5118010;28;20111;-70
2022/05/04 08:40:37;;;;;;;10.15;3.20;;;11.50;99.90;;;;;;5117751;28;20111;-69
2022/05/04 08:43:07;;;;;;;10.40;3.22;;;11.60;99.90;;;;;;5117877;28;20127;-68
2022/05/04 08:45:40;;;;;;;11.23;3.58;;;11.80;99.90;;;;;;5117952;28;20031;-69
2022/05/04 08:48:08;;;;;;;;;;;11.80;99.60;;;;;;5118259;28;20028;-69
2022/05/04 08:50:35;;;;;;;10.00;3.05;;;12.30;99.90;;;;;;5117543;28;19915;-70
2022/05/04 08:53:05;;;;;;;10.60;4.45;;;12.30;99.90;;;;;;5117955;28;20257;-69
2022/05/04 08:55:31;;;;;;;11.93;3.40;;;12.40;98.10;;;;;;5117668;28;20175;-68
2022/05/04 08:57:56;;;;;;;9.60;3.55;;;12.30;98.80;;;;;;5116818;28;20059;-70
2022/05/04 09:00:23;;;;;;;11.43;3.42;;;12.30;98.70;;;;;;5117092;28;20561;-69
2022/05/04 09:02:48;;;;;;;14.13;4.05;;;12.20;97.80;;;;;;5116870;28;20035;-70
2022/05/04 09:05:22;;;;;;;10.55;3.38;;;12.20;99.50;;;;;;5115299;28;20031;-68
2022/05/04 09:07:50;;;;;;;9.73;3.53;;;12.10;98.10;;;;;;5096305;28;20043;-68
2022/05/04 09:10:21;;;;;;;10.75;3.70;;;12.20;99.60;;;;;;5095629;28;20040;-68
2022/05/04 09:12:49;;;;;;;12.48;3.45;;;12.30;99.90;;;;;;5096087;28;20135;-69
2022/05/04 09:15:30;;;;;;;14.05;3.80;;;12.30;99.00;;;;;;5097184;28;20040;-69
2022/05/04 09:18:00;;;;;;;14.77;3.88;;;12.30;99.20;;;;;;5096682;28;20072;-68
2022/05/04 09:20:49;;;;;;;10.63;3.17;;;12.50;99.10;;;;;;5095944;28;20044;-69
2022/05/04 09:23:32;;;;;;;9.82;3.70;;;12.60;99.10;;;;;;5096340;28;20032;-70
2022/05/04 09:26:05;;;;;;;13.25;4.35;;;12.90;98.70;;;;;;5097247;28;20048;-68
2022/05/04 09:28:30;;;;;;;8.05;3.63;;;12.80;96.30;;;;;;5095543;28;20051;-69
2022/05/04 09:31:04;;;;;;;10.32;4.47;;;12.80;97.50;;;;;;5096192;28;20035;-68
2022/05/04 09:33:34;;;;;;;9.30;3.65;;;12.90;97.20;;;;;;5095907;28;20524;-69
2022/05/04 09:36:03;;;;;;;9.25;3.88;;;12.90;97.00;;;;;;5102460;28;20035;-69
2022/05/04 09:46:48;;;;;;;7.70;3.58;;;12.80;96.60;;;;;;5094595;28;20440;-68
2022/05/04 09:49:22;;;;;;;9.45;3.15;;;12.70;96.90;;;;;;5100741;28;20476;-68
2022/05/04 09:51:51;;;;;;;7.03;3.10;;;13.00;96.50;;;;;;5105380;28;20565;-70
2022/05/04 09:54:18;;;;;;;14.32;3.60;;;13.00;94.20;;;;;;5101308;28;20039;-68
2022/05/04 09:56:51;;;;;;;8.90;3.80;;;12.80;94.20;;;;;;5100867;28;20048;-68
2022/05/04 09:59:22;;;;;;;7.72;3.25;;;12.80;93.80;;;;;;5099398;28;20100;-68
2022/05/04 10:01:48;;;;;;;8.77;3.53;;;12.80;94.10;;;;;;5113457;28;20039;-69
2022/05/04 10:04:15;;;;;;;9.23;3.40;;;12.70;93.50;;;;;;5112866;28;20173;-68
2022/05/04 10:06:41;;;;;;;11.02;2.95;;;12.80;95.40;;;;;;5113275;28;20042;-69
2022/05/04 10:09:07;;;;;;;10.30;3.28;;;13.00;95.10;;;;;;5094311;28;20051;-69
2022/05/04 10:11:34;;;;;;;6.60;3.15;;;13.00;94.40;;;;;;5112673;28;20035;-69
2022/05/04 10:14:12;;;;;;;10.70;2.72;;;13.00;95.70;;;;;;5113778;28;20036;-68
2022/05/04 10:17:11;;;;;;;10.40;3.40;;;13.00;94.80;;;;;;5113395;28;20511;-68
2022/05/04 10:19:49;;;;;;;8.27;3.75;;;13.00;93.60;;;;;;5113020;28;20046;-68
2022/05/04 10:22:22;;;;;;;8.60;3.47;;;12.80;94.60;;;;;;5112320;28;20082;-69
2022/05/04 10:24:48;;;;;;;14.68;3.67;;;12.90;94.00;;;;;;5113565;28;20115;-68
2022/05/04 10:27:23;;;;;;;12.77;3.30;;;12.90;92.70;;;;;;5112362;28;20111;-67
2022/05/04 10:32:47;;;;;;;11.20;3.28;;;13.00;94.10;;;;;;5112710;28;20082;-69
2022/05/04 10:35:42;;;;;;;8.60;3.45;;;13.10;89.20;;;;;;5095068;28;20043;-69
2022/05/04 10:38:18;;;;;;;11.63;3.33;;;13.10;90.50;;;;;;5094495;28;20050;-68
2022/05/04 10:40:57;;;;;;;10.40;3.42;;;12.90;90.70;;;;;;5094045;28;20028;-69
2022/05/04 10:43:45;;;;;;;11.65;3.40;;;13.00;91.90;;;;;;5091649;28;20047;-69
2022/05/04 10:46:13;;;;;;;8.88;3.50;;;13.10;91.60;;;;;;5091870;28;20165;-68
2022/05/04 10:48:43;;;;;;;9.45;3.00;;;13.10;92.10;;;;;;5091786;28;20036;-69
2022/05/04 10:51:19;;;;;;;9.65;3.15;;;13.20;94.10;;;;;;5091141;28;20028;-66
2022/05/04 10:54:17;;;;;;;12.95;3.60;;;13.40;93.60;;;;;;5094791;28;20036;-66
2022/05/04 10:56:48;;;;;;;7.05;3.35;;;13.50;91.50;;;;;;5090988;28;20044;-66
2022/05/04 10:59:33;;;;;;;7.28;2.90;;;13.40;92.20;;;;;;5097839;28;20024;-66
2022/05/04 11:02:00;;;;;;;8.63;3.38;;;13.50;90.20;;;;;;5103328;28;20056;-65
2022/05/04 11:04:26;;;;;;;9.02;3.20;;;13.30;92.60;;;;;;5101978;28;20044;-67
2022/05/04 11:07:02;;;;;;;9.18;3.05;;;13.40;92.20;;;;;;5108365;28;20399;-65
2022/05/04 11:09:32;;;;;;;13.02;3.50;;;13.60;90.20;;;;;;5106264;28;20399;-68
2022/05/04 11:12:04;;;;;;;9.02;2.90;;;13.60;90.30;;;;;;5089298;28;20488;-69
2022/05/04 11:14:32;;;;;;;;;;;13.70;90.20;;;;;;5102497;28;20564;-69
2022/05/04 11:16:59;;;;;;;8.30;3.25;;;13.60;90.00;;;;;;5084008;28;20472;-69
2022/05/04 11:19:27;;;;;;;11.95;3.25;;;13.80;92.10;;;;;;5111793;28;20077;-69
2022/05/04 11:21:54;;;;;;;13.52;2.80;;;14.00;92.80;;;;;;5110601;28;20082;-70
2022/05/04 11:24:19;;;;;;;14.68;3.30;;;14.20;92.40;;;;;;5093346;28;20057;-70
2022/05/04 11:26:50;;;;;;;10.85;3.17;;;14.10;81.80;;;;;;5112052;28;20039;-70
2022/05/04 11:29:26;;;;;;;7.00;2.65;;;13.90;82.00;;;;;;5093983;28;20044;-70
2022/05/04 11:31:57;;;;;;;8.57;3.05;;;13.90;77.10;;;;;;5095863;28;20140;-71
2022/05/04 11:34:37;;;;;;;9.07;2.92;;;14.10;84.20;;;;;;5095486;28;20054;-71
2022/05/04 11:37:08;;;;;;;17.48;3.33;;;14.20;85.60;;;;;;5094504;28;20118;-70
2022/05/04 11:39:33;;;;;;;9.05;2.75;;;14.10;80.00;;;;;;5111902;28;20062;-70
2022/05/04 11:42:01;;;;;;;10.73;3.33;;;14.00;84.40;;;;;;5093559;28;20484;-71
2022/05/04 11:44:28;;;;;;;17.50;3.67;;;14.00;79.00;;;;;;5111904;28;20050;-71
2022/05/04 11:46:56;;;;;;;13.52;2.95;;;13.80;86.00;;;;;;5093817;28;20475;-68
2022/05/04 11:49:24;;;;;;;13.77;2.80;;;14.10;88.90;;;;;;5111577;28;20036;-71
2022/05/04 11:51:51;;;;;;;11.30;2.90;;;14.20;90.50;;;;;;5102965;28;20431;-70
2022/05/04 11:54:17;;;;;;;15.52;3.72;;;14.30;89.80;;;;;;5096239;28;20407;-72
2022/05/04 11:56:43;;;;;;;7.25;2.88;;;14.40;90.00;;;;;;5091444;28;20040;-71
2022/05/04 11:59:08;;;;;;;6.88;2.78;;;14.60;82.90;;;;;;5072150;28;20093;-71
2022/05/04 12:01:35;;;;;;;11.63;2.55;;;14.60;82.80;;;;;;5072509;28;20040;-70
2022/05/04 12:04:02;;;;;;;6.75;3.05;;;14.30;79.50;;;;;;5071364;28;20115;-70
2022/05/04 12:06:29;;;;;;;9.45;2.75;;;14.30;76.80;;;;;;5071692;28;20039;-71
2022/05/04 12:08:56;;;;;;;11.38;3.15;;;14.20;81.10;;;;;;5075236;28;20027;-72
2022/05/04 12:11:23;;;;;;;9.90;2.67;;;14.30;80.00;;;;;;5090459;28;20169;-70
2022/05/04 12:13:49;;;;;;;11.20;3.00;;;14.40;79.20;;;;;;5089588;28;20236;-70
2022/05/04 12:16:15;;;;;;;7.72;2.88;;;14.30;80.20;;;;;;5072573;28;20047;-70
2022/05/04 12:18:42;;;;;;;10.10;2.97;;;14.60;81.30;;;;;;5072600;28;20229;-71
2022/05/04 12:21:13;;;;;;;6.05;2.53;;;14.40;82.00;;;;;;5090385;28;20129;-71
2022/05/04 12:23:40;;;;;;;6.22;2.28;;;14.60;79.30;;;;;;5090927;28;20036;-70
2022/05/04 12:26:07;;;;;;;8.80;2.47;;;14.70;81.10;;;;;;5090733;28;20044;-71
2022/05/04 12:28:34;;;;;;;10.82;2.80;;;14.80;81.30;;;;;;5098831;28;20156;-70
2022/05/04 12:33:44;;;;;;;10.70;2.75;;;15.00;75.40;;;;;;5093055;28;20395;-67
2022/05/04 12:36:12;;;;;;;5.78;2.05;;;15.10;80.60;;;;;;5111018;28;20048;-66
2022/05/04 12:38:39;;;;;;;7.75;2.80;;;15.20;78.10;;;;;;5110075;28;20110;-66
2022/05/04 12:41:07;;;;;;;6.47;2.70;;;15.20;78.20;;;;;;5111503;28;20047;-66
2022/05/04 12:43:41;;;;;;;13.00;2.90;;;15.30;75.10;;;;;;5111826;28;20042;-67
2022/05/04 12:46:12;;;;;;;9.18;2.85;;;15.30;72.30;;;;;;5112114;28;20040;-66
2022/05/04 12:48:43;;;;;;;8.95;2.38;;;15.30;74.80;;;;;;5111416;28;20080;-67
2022/05/04 12:51:10;;;;;;;7.28;2.53;;;15.40;69.10;;;;;;5111522;28;20069;-66
2022/05/04 12:53:39;;;;;;;9.32;2.70;;;15.40;76.40;;;;;;5111153;28;20093;-66
2022/05/04 12:58:51;;;;;;;6.97;2.67;;;15.50;76.60;;;;;;5110998;28;20130;-66
2022/05/04 13:01:21;;;;;;;15.25;2.72;;;15.60;78.90;;;;;;5111191;28;20093;-66
2022/05/04 13:03:46;;;;;;;6.88;2.55;;;15.60;76.20;;;;;;5111130;28;20039;-66
2022/05/04 13:06:12;;;;;;;5.75;2.53;;;15.50;75.60;;;;;;5110705;28;20043;-67
2022/05/04 13:08:37;;;;;;;8.32;2.53;;;15.60;73.60;;;;;;5110949;28;20031;-66
2022/05/04 13:11:05;;;;;;;12.07;2.75;;;15.60;76.80;;;;;;5111122;28;20035;-66
2022/05/04 13:13:30;;;;;;;7.53;2.80;;;15.60;71.90;;;;;;5111152;28;20326;-67
2022/05/04 13:15:56;;;;;;;11.38;2.92;;;15.70;73.50;;;;;;5112385;28;20135;-67
2022/05/04 13:18:21;;;;;;;11.20;2.72;;;15.80;76.80;;;;;;5114624;28;20079;-67
2022/05/04 13:20:48;;;;;;;7.57;2.47;;;15.90;67.30;;;;;;5114873;28;20095;-67
2022/05/04 13:23:14;;;;;;;14.98;3.35;;;15.70;66.40;;;;;;5114833;28;20403;-67
2022/05/04 13:25:40;;;;;;;8.35;3.00;;;15.70;68.80;;;;;;5114752;28;20035;-67
2022/05/04 13:28:06;;;;;;;4.13;2.22;;;15.50;69.70;;;;;;5114559;28;20042;-66